South Wanatah, Indiana
Current Conditions -  °F | °C
As of 12:56 AM on Sunday 23 Nov 2014 (Local Time) from KVPZ Reporting Station
Overcast Overcast  
Wind Chill: 44°   Ceiling: 2300
Heat Index: 49°   Visibility: 10mi
Dew Point: 45°   Wind: 13mph
Humidity: 86%   Direction: 200°SSW
Pressure: 29.89"   Gusts: NA
Location:  41.4092°N, 86.8646°W
Report Text: KVPZ 230656Z AUTO 20011KT 10SM OVC023 09/07 A2989 RMK AO2 SLP124 T00940072 TSNO
Loading
Personal Weather Stations






























Interactive Weather Map New forecast layout! Learn more

10-Day Weather Forecast

Advertisements
Track Severe Weather on mobile